sensor_id;sensor_type;location;lat;lon;timestamp;pressure;altitude;pressure_sealevel;temperature;humidity
11605;BME280;5858;43.076;25.626;2023-11-21T00:00:55;99102.84;;;5.38;100.00
11605;BME280;5858;43.076;25.626;2023-11-21T00:03:23;99129.94;;;5.50;100.00
11605;BME280;5858;43.076;25.626;2023-11-21T00:05:50;99091.13;;;5.23;100.00
11605;BME280;5858;43.076;25.626;2023-11-21T00:08:19;99151.66;;;5.46;100.00
11605;BME280;5858;43.076;25.626;2023-11-21T00:10:46;99106.13;;;5.15;100.00
11605;BME280;5858;43.076;25.626;2023-11-21T00:13:13;99130.63;;;5.26;100.00
11605;BME280;5858;43.076;25.626;2023-11-21T00:15:40;99129.69;;;5.35;100.00
11605;BME280;5858;43.076;25.626;2023-11-21T00:18:07;99145.28;;;5.38;100.00
11605;BME280;5858;43.076;25.626;2023-11-21T00:20:35;99081.69;;;5.03;100.00
11605;BME280;5858;43.076;25.626;2023-11-21T00:23:03;99150.28;;;5.42;100.00
11605;BME280;5858;43.076;25.626;2023-11-21T00:25:31;99128.84;;;5.35;100.00
11605;BME280;5858;43.076;25.626;2023-11-21T00:27:58;99132.50;;;5.34;100.00
11605;BME280;5858;43.076;25.626;2023-11-21T00:30:26;99115.84;;;5.24;100.00
11605;BME280;5858;43.076;25.626;2023-11-21T00:32:54;99133.16;;;5.36;100.00
11605;BME280;5858;43.076;25.626;2023-11-21T00:35:21;99021.50;;;4.60;100.00
11605;BME280;5858;43.076;25.626;2023-11-21T00:37:48;99132.81;;;5.13;100.00
11605;BME280;5858;43.076;25.626;2023-11-21T00:40:15;99049.31;;;4.73;100.00
11605;BME280;5858;43.076;25.626;2023-11-21T00:42:46;99085.41;;;4.92;100.00
11605;BME280;5858;43.076;25.626;2023-11-21T00:45:13;99108.03;;;5.04;100.00
11605;BME280;5858;43.076;25.626;2023-11-21T00:47:40;99127.44;;;5.05;100.00
11605;BME280;5858;43.076;25.626;2023-11-21T00:50:08;99064.81;;;4.68;100.00
11605;BME280;5858;43.076;25.626;2023-11-21T00:52:36;99083.16;;;4.80;100.00
11605;BME280;5858;43.076;25.626;2023-11-21T00:55:03;99120.53;;;5.12;100.00
11605;BME280;5858;43.076;25.626;2023-11-21T00:57:30;99130.31;;;5.12;100.00
11605;BME280;5858;43.076;25.626;2023-11-21T00:59:59;99091.19;;;4.88;100.00
11605;BME280;5858;43.076;25.626;2023-11-21T01:02:25;99096.84;;;4.93;100.00
11605;BME280;5858;43.076;25.626;2023-11-21T01:04:53;99113.97;;;4.98;100.00
11605;BME280;5858;43.076;25.626;2023-11-21T01:07:20;99055.97;;;4.60;100.00
11605;BME280;5858;43.076;25.626;2023-11-21T01:09:47;99023.41;;;4.50;100.00
11605;BME280;5858;43.076;25.626;2023-11-21T01:12:14;99082.53;;;4.68;100.00
11605;BME280;5858;43.076;25.626;2023-11-21T01:14:43;99096.72;;;4.77;100.00
11605;BME280;5858;43.076;25.626;2023-11-21T01:17:12;99118.75;;;4.95;100.00
11605;BME280;5858;43.076;25.626;2023-11-21T01:19:39;98997.00;;;4.04;100.00
11605;BME280;5858;43.076;25.626;2023-11-21T01:22:06;99051.44;;;4.52;100.00
11605;BME280;5858;43.076;25.626;2023-11-21T01:24:34;99115.41;;;4.93;100.00
11605;BME280;5858;43.076;25.626;2023-11-21T01:27:01;99105.63;;;4.93;100.00
11605;BME280;5858;43.076;25.626;2023-11-21T01:29:29;99001.75;;;4.19;100.00
11605;BME280;5858;43.076;25.626;2023-11-21T01:31:56;99080.56;;;4.70;100.00
11605;BME280;5858;43.076;25.626;2023-11-21T01:34:25;99089.91;;;4.74;100.00
11605;BME280;5858;43.076;25.626;2023-11-21T01:36:53;99106.25;;;4.87;100.00
11605;BME280;5858;43.076;25.626;2023-11-21T01:39:19;99107.16;;;4.78;100.00
11605;BME280;5858;43.076;25.626;2023-11-21T01:41:49;99100.03;;;4.96;100.00
11605;BME280;5858;43.076;25.626;2023-11-21T01:44:17;99064.06;;;4.58;100.00
11605;BME280;5858;43.076;25.626;2023-11-21T01:46:45;99107.13;;;4.60;100.00
11605;BME280;5858;43.076;25.626;2023-11-21T01:49:12;99053.19;;;4.16;100.00
11605;BME280;5858;43.076;25.626;2023-11-21T01:51:43;99115.06;;;4.42;100.00
11605;BME280;5858;43.076;25.626;2023-11-21T01:54:12;99002.50;;;3.66;100.00
11605;BME280;5858;43.076;25.626;2023-11-21T01:56:39;99106.22;;;4.34;100.00
11605;BME280;5858;43.076;25.626;2023-11-21T01:59:06;99089.09;;;4.28;100.00
11605;BME280;5858;43.076;25.626;2023-11-21T02:01:34;99078.22;;;4.31;100.00
11605;BME280;5858;43.076;25.626;2023-11-21T02:04:01;99054.53;;;4.02;100.00
11605;BME280;5858;43.076;25.626;2023-11-21T02:06:28;99099.00;;;4.26;100.00
11605;BME280;5858;43.076;25.626;2023-11-21T02:08:58;99090.56;;;4.13;100.00
11605;BME280;5858;43.076;25.626;2023-11-21T02:11:25;99101.44;;;4.10;100.00
11605;BME280;5858;43.076;25.626;2023-11-21T02:13:52;99085.31;;;4.03;100.00
11605;BME280;5858;43.076;25.626;2023-11-21T02:16:20;99100.25;;;4.22;100.00
11605;BME280;5858;43.076;25.626;2023-11-21T02:18:47;99066.66;;;4.05;100.00
11605;BME280;5858;43.076;25.626;2023-11-21T02:21:15;99086.50;;;4.19;100.00
11605;BME280;5858;43.076;25.626;2023-11-21T02:23:43;99090.91;;;4.28;100.00
11605;BME280;5858;43.076;25.626;2023-11-21T02:26:12;99048.66;;;4.08;100.00
11605;BME280;5858;43.076;25.626;2023-11-21T02:28:39;99101.16;;;4.40;100.00
11605;BME280;5858;43.076;25.626;2023-11-21T02:31:06;99019.28;;;3.84;100.00
11605;BME280;5858;43.076;25.626;2023-11-21T02:33:33;98989.22;;;3.75;100.00
11605;BME280;5858;43.076;25.626;2023-11-21T02:36:00;99091.47;;;4.49;100.00
11605;BME280;5858;43.076;25.626;2023-11-21T02:38:29;99099.72;;;4.46;100.00
11605;BME280;5858;43.076;25.626;2023-11-21T02:41:00;99052.81;;;4.11;100.00
11605;BME280;5858;43.076;25.626;2023-11-21T02:43:27;98908.34;;;3.18;100.00
11605;BME280;5858;43.076;25.626;2023-11-21T02:45:55;99085.94;;;4.15;100.00
11605;BME280;5858;43.076;25.626;2023-11-21T02:48:25;99095.88;;;3.76;100.00
11605;BME280;5858;43.076;25.626;2023-11-21T02:50:51;99083.13;;;3.99;100.00
11605;BME280;5858;43.076;25.626;2023-11-21T02:53:18;99082.97;;;4.00;100.00
11605;BME280;5858;43.076;25.626;2023-11-21T02:55:49;99079.88;;;4.05;100.00
11605;BME280;5858;43.076;25.626;2023-11-21T02:58:18;98988.44;;;3.38;100.00
11605;BME280;5858;43.076;25.626;2023-11-21T03:00:45;99079.84;;;3.87;100.00
11605;BME280;5858;43.076;25.626;2023-11-21T03:03:12;99063.97;;;3.77;100.00
11605;BME280;5858;43.076;25.626;2023-11-21T03:05:40;99042.31;;;3.64;100.00
11605;BME280;5858;43.076;25.626;2023-11-21T03:08:06;99051.13;;;3.55;100.00
11605;BME280;5858;43.076;25.626;2023-11-21T03:10:33;99069.56;;;3.84;100.00
11605;BME280;5858;43.076;25.626;2023-11-21T03:13:01;99076.38;;;3.87;100.00
11605;BME280;5858;43.076;25.626;2023-11-21T03:15:29;99068.34;;;3.69;100.00
11605;BME280;5858;43.076;25.626;2023-11-21T03:17:58;99094.34;;;3.83;100.00
11605;BME280;5858;43.076;25.626;2023-11-21T03:20:25;99075.53;;;3.86;100.00
11605;BME280;5858;43.076;25.626;2023-11-21T03:22:51;99059.28;;;3.71;100.00
11605;BME280;5858;43.076;25.626;2023-11-21T03:25:18;99078.31;;;3.85;100.00
11605;BME280;5858;43.076;25.626;2023-11-21T03:27:46;99022.91;;;3.46;100.00
11605;BME280;5858;43.076;25.626;2023-11-21T03:30:12;99089.59;;;3.77;100.00
11605;BME280;5858;43.076;25.626;2023-11-21T03:32:41;99084.91;;;3.71;100.00
11605;BME280;5858;43.076;25.626;2023-11-21T03:35:08;99095.88;;;3.76;100.00
11605;BME280;5858;43.076;25.626;2023-11-21T03:37:35;98978.69;;;3.01;100.00
11605;BME280;5858;43.076;25.626;2023-11-21T03:40:04;99073.38;;;3.62;100.00
11605;BME280;5858;43.076;25.626;2023-11-21T03:42:33;99005.44;;;3.35;100.00
11605;BME280;5858;43.076;25.626;2023-11-21T03:45:00;99048.50;;;3.55;100.00
11605;BME280;5858;43.076;25.626;2023-11-21T03:47:28;99023.50;;;3.30;100.00
11605;BME280;5858;43.076;25.626;2023-11-21T03:49:57;98985.16;;;3.16;100.00
11605;BME280;5858;43.076;25.626;2023-11-21T03:52:24;99096.72;;;3.76;100.00
11605;BME280;5858;43.076;25.626;2023-11-21T03:54:52;99042.28;;;3.46;100.00
11605;BME280;5858;43.076;25.626;2023-11-21T03:57:20;99097.13;;;3.82;100.00
11605;BME280;5858;43.076;25.626;2023-11-21T03:59:47;99070.16;;;3.68;100.00
11605;BME280;5858;43.076;25.626;2023-11-21T04:02:14;98969.06;;;3.10;100.00
11605;BME280;5858;43.076;25.626;2023-11-21T04:04:41;99084.59;;;3.84;100.00
11605;BME280;5858;43.076;25.626;2023-11-21T04:07:09;99058.78;;;3.58;100.00
11605;BME280;5858;43.076;25.626;2023-11-21T04:09:36;99088.91;;;3.75;100.00
11605;BME280;5858;43.076;25.626;2023-11-21T04:12:04;99027.84;;;3.31;100.00
11605;BME280;5858;43.076;25.626;2023-11-21T04:14:32;99034.38;;;3.27;100.00
11605;BME280;5858;43.076;25.626;2023-11-21T04:17:00;99072.84;;;3.59;100.00
11605;BME280;5858;43.076;25.626;2023-11-21T04:19:29;99090.91;;;3.63;100.00
11605;BME280;5858;43.076;25.626;2023-11-21T04:21:56;99084.44;;;3.48;100.00
11605;BME280;5858;43.076;25.626;2023-11-21T04:24:24;99023.47;;;3.03;100.00
11605;BME280;5858;43.076;25.626;2023-11-21T04:26:51;99015.81;;;3.00;100.00
11605;BME280;5858;43.076;25.626;2023-11-21T04:29:18;99100.66;;;3.63;100.00
11605;BME280;5858;43.076;25.626;2023-11-21T04:31:46;99094.31;;;3.46;100.00
11605;BME280;5858;43.076;25.626;2023-11-21T04:34:14;99094.59;;;3.53;100.00
11605;BME280;5858;43.076;25.626;2023-11-21T04:36:41;99079.44;;;3.45;100.00
11605;BME280;5858;43.076;25.626;2023-11-21T04:39:08;99084.47;;;3.38;100.00
11605;BME280;5858;43.076;25.626;2023-11-21T04:41:36;99066.78;;;3.29;100.00
11605;BME280;5858;43.076;25.626;2023-11-21T04:44:05;99088.50;;;3.42;100.00
11605;BME280;5858;43.076;25.626;2023-11-21T04:46:32;99069.44;;;3.39;100.00
11605;BME280;5858;43.076;25.626;2023-11-21T04:48:59;99084.97;;;3.52;100.00
11605;BME280;5858;43.076;25.626;2023-11-21T04:51:26;99053.19;;;3.24;100.00
11605;BME280;5858;43.076;25.626;2023-11-21T04:53:53;99096.59;;;3.68;100.00
11605;BME280;5858;43.076;25.626;2023-11-21T04:56:20;99100.63;;;3.72;100.00
11605;BME280;5858;43.076;25.626;2023-11-21T04:58:48;99032.44;;;3.29;100.00
11605;BME280;5858;43.076;25.626;2023-11-21T05:01:15;99102.47;;;3.62;100.00
11605;BME280;5858;43.076;25.626;2023-11-21T05:03:42;99080.53;;;3.52;100.00
11605;BME280;5858;43.076;25.626;2023-11-21T05:06:09;99070.66;;;3.44;100.00
11605;BME280;5858;43.076;25.626;2023-11-21T05:08:36;99095.16;;;3.46;100.00
11605;BME280;5858;43.076;25.626;2023-11-21T05:11:04;99037.91;;;3.08;100.00
11605;BME280;5858;43.076;25.626;2023-11-21T05:13:33;98977.47;;;2.76;100.00
11605;BME280;5858;43.076;25.626;2023-11-21T05:16:02;99061.13;;;3.14;100.00
11605;BME280;5858;43.076;25.626;2023-11-21T05:18:32;99035.81;;;3.12;100.00
11605;BME280;5858;43.076;25.626;2023-11-21T05:21:00;98997.75;;;2.95;100.00
11605;BME280;5858;43.076;25.626;2023-11-21T05:23:26;99014.47;;;2.86;100.00
11605;BME280;5858;43.076;25.626;2023-11-21T05:25:53;99116.75;;;3.42;100.00
11605;BME280;5858;43.076;25.626;2023-11-21T05:28:21;99129.50;;;3.56;100.00
11605;BME280;5858;43.076;25.626;2023-11-21T05:30:48;99125.59;;;3.60;100.00
11605;BME280;5858;43.076;25.626;2023-11-21T05:33:17;99124.03;;;3.67;100.00
11605;BME280;5858;43.076;25.626;2023-11-21T05:35:44;99126.53;;;3.69;100.00
11605;BME280;5858;43.076;25.626;2023-11-21T05:38:11;99096.50;;;3.60;100.00
11605;BME280;5858;43.076;25.626;2023-11-21T05:40:38;99147.56;;;3.80;100.00
11605;BME280;5858;43.076;25.626;2023-11-21T05:43:04;99068.44;;;3.50;100.00
11605;BME280;5858;43.076;25.626;2023-11-21T05:45:32;99094.91;;;3.77;100.00
11605;BME280;5858;43.076;25.626;2023-11-21T05:47:59;99054.19;;;3.60;100.00
11605;BME280;5858;43.076;25.626;2023-11-21T05:50:27;99115.13;;;4.05;100.00
11605;BME280;5858;43.076;25.626;2023-11-21T05:52:54;99105.75;;;4.11;100.00
11605;BME280;5858;43.076;25.626;2023-11-21T05:55:23;99133.13;;;4.02;100.00
11605;BME280;5858;43.076;25.626;2023-11-21T05:57:51;99015.44;;;3.41;100.00
11605;BME280;5858;43.076;25.626;2023-11-21T06:00:19;99134.66;;;4.32;100.00
11605;BME280;5858;43.076;25.626;2023-11-21T06:02:47;99134.06;;;4.38;100.00
11605;BME280;5858;43.076;25.626;2023-11-21T06:05:19;99103.47;;;4.26;100.00
11605;BME280;5858;43.076;25.626;2023-11-21T06:07:50;99086.63;;;4.17;100.00
11605;BME280;5858;43.076;25.626;2023-11-21T06:10:19;99102.44;;;4.36;99.35
11605;BME280;5858;43.076;25.626;2023-11-21T06:12:46;99064.25;;;4.11;100.00
11605;BME280;5858;43.076;25.626;2023-11-21T06:15:13;99061.34;;;4.05;100.00
11605;BME280;5858;43.076;25.626;2023-11-21T06:17:40;99067.13;;;4.18;99.94
11605;BME280;5858;43.076;25.626;2023-11-21T06:20:09;99140.31;;;4.64;99.94
11605;BME280;5858;43.076;25.626;2023-11-21T06:22:40;99142.19;;;4.72;98.93
11605;BME280;5858;43.076;25.626;2023-11-21T06:25:10;99145.09;;;4.79;99.05
11605;BME280;5858;43.076;25.626;2023-11-21T06:27:41;99137.06;;;4.88;99.27
11605;BME280;5858;43.076;25.626;2023-11-21T06:30:08;99139.78;;;4.96;98.20
11605;BME280;5858;43.076;25.626;2023-11-21T06:32:37;99146.22;;;5.12;97.64
11605;BME280;5858;43.076;25.626;2023-11-21T06:35:06;99075.09;;;4.71;97.59
11605;BME280;5858;43.076;25.626;2023-11-21T06:37:34;99115.47;;;5.01;98.05
11605;BME280;5858;43.076;25.626;2023-11-21T06:40:04;99140.75;;;5.13;98.22
11605;BME280;5858;43.076;25.626;2023-11-21T06:42:33;99140.97;;;5.20;97.37
11605;BME280;5858;43.076;25.626;2023-11-21T06:45:00;99136.53;;;5.20;96.68
11605;BME280;5858;43.076;25.626;2023-11-21T06:47:29;99042.09;;;4.66;96.57
11605;BME280;5858;43.076;25.626;2023-11-21T06:49:56;99034.38;;;4.72;96.99
11605;BME280;5858;43.076;25.626;2023-11-21T06:52:23;99076.78;;;4.90;96.10
11605;BME280;5858;43.076;25.626;2023-11-21T06:54:52;99091.72;;;5.17;96.81
11605;BME280;5858;43.076;25.626;2023-11-21T06:57:20;99077.63;;;5.17;97.01
11605;BME280;5858;43.076;25.626;2023-11-21T06:59:49;99089.22;;;5.33;97.08
11605;BME280;5858;43.076;25.626;2023-11-21T07:02:16;99105.69;;;5.45;97.19
11605;BME280;5858;43.076;25.626;2023-11-21T07:04:44;99092.66;;;5.52;96.53
11605;BME280;5858;43.076;25.626;2023-11-21T07:07:11;99099.34;;;5.64;95.14
11605;BME280;5858;43.076;25.626;2023-11-21T07:09:38;99114.41;;;5.81;94.79
11605;BME280;5858;43.076;25.626;2023-11-21T07:12:06;99069.47;;;5.62;95.24
11605;BME280;5858;43.076;25.626;2023-11-21T07:14:33;99107.03;;;6.01;95.05
11605;BME280;5858;43.076;25.626;2023-11-21T07:17:01;99112.06;;;6.12;95.12
11605;BME280;5858;43.076;25.626;2023-11-21T07:19:28;99008.09;;;5.57;94.83
11605;BME280;5858;43.076;25.626;2023-11-21T07:21:56;99100.03;;;6.34;94.69
11605;BME280;5858;43.076;25.626;2023-11-21T07:24:22;99076.28;;;6.24;93.67
11605;BME280;5858;43.076;25.626;2023-11-21T07:26:49;99078.81;;;6.50;93.43
11605;BME280;5858;43.076;25.626;2023-11-21T07:29:16;99097.47;;;6.67;94.05
11605;BME280;5858;43.076;25.626;2023-11-21T07:31:43;99077.69;;;6.69;93.31
11605;BME280;5858;43.076;25.626;2023-11-21T07:34:12;99027.31;;;6.51;92.47
11605;BME280;5858;43.076;25.626;2023-11-21T07:36:38;99075.56;;;6.89;91.99
11605;BME280;5858;43.076;25.626;2023-11-21T07:39:05;99114.31;;;7.24;91.44
11605;BME280;5858;43.076;25.626;2023-11-21T07:41:33;99093.84;;;7.24;91.96
11605;BME280;5858;43.076;25.626;2023-11-21T07:44:03;99095.13;;;7.45;92.16
11605;BME280;5858;43.076;25.626;2023-11-21T07:46:31;99093.94;;;7.55;91.86
11605;BME280;5858;43.076;25.626;2023-11-21T07:48:58;99050.13;;;7.19;91.03
11605;BME280;5858;43.076;25.626;2023-11-21T07:51:27;99107.88;;;7.82;90.12
11605;BME280;5858;43.076;25.626;2023-11-21T07:53:54;99089.44;;;7.72;89.77
11605;BME280;5858;43.076;25.626;2023-11-21T07:56:21;98988.25;;;7.17;89.40
11605;BME280;5858;43.076;25.626;2023-11-21T07:58:48;99105.22;;;8.29;89.37
11605;BME280;5858;43.076;25.626;2023-11-21T08:01:15;99104.63;;;8.50;88.70
11605;BME280;5858;43.076;25.626;2023-11-21T08:03:43;99078.13;;;8.57;88.85
11605;BME280;5858;43.076;25.626;2023-11-21T08:06:10;99098.50;;;8.95;86.86
11605;BME280;5858;43.076;25.626;2023-11-21T08:08:38;98909.13;;;7.81;84.96
11605;BME280;5858;43.076;25.626;2023-11-21T08:11:05;99097.41;;;8.90;84.56
11605;BME280;5858;43.076;25.626;2023-11-21T08:13:33;99097.84;;;9.01;83.47
11605;BME280;5858;43.076;25.626;2023-11-21T08:16:00;98987.25;;;8.35;83.29
11605;BME280;5858;43.076;25.626;2023-11-21T08:18:30;99015.13;;;8.56;83.66
11605;BME280;5858;43.076;25.626;2023-11-21T08:20:57;99075.97;;;8.98;83.25
11605;BME280;5858;43.076;25.626;2023-11-21T08:23:24;98991.31;;;8.54;82.81
11605;BME280;5858;43.076;25.626;2023-11-21T08:25:53;99090.81;;;9.23;82.15
11605;BME280;5858;43.076;25.626;2023-11-21T08:28:21;99044.31;;;8.95;81.97
11605;BME280;5858;43.076;25.626;2023-11-21T08:30:48;99083.38;;;9.33;81.91
11605;BME280;5858;43.076;25.626;2023-11-21T08:33:18;99001.44;;;8.96;81.79
11605;BME280;5858;43.076;25.626;2023-11-21T08:35:48;99081.50;;;9.57;82.19
11605;BME280;5858;43.076;25.626;2023-11-21T08:38:15;99070.44;;;9.60;82.28
11605;BME280;5858;43.076;25.626;2023-11-21T08:40:43;99062.59;;;9.58;82.51
11605;BME280;5858;43.076;25.626;2023-11-21T08:43:11;99068.88;;;9.65;82.36
11605;BME280;5858;43.076;25.626;2023-11-21T08:45:40;99060.66;;;9.82;81.40
11605;BME280;5858;43.076;25.626;2023-11-21T08:48:07;98972.16;;;9.40;81.24
11605;BME280;5858;43.076;25.626;2023-11-21T08:50:34;99027.16;;;9.94;81.09
11605;BME280;5858;43.076;25.626;2023-11-21T08:53:01;99041.75;;;10.27;79.49
11605;BME280;5858;43.076;25.626;2023-11-21T08:55:28;99045.50;;;10.48;78.14
11605;BME280;5858;43.076;25.626;2023-11-21T08:57:55;99002.63;;;10.41;76.83
11605;BME280;5858;43.076;25.626;2023-11-21T09:00:25;98939.13;;;10.28;75.13
11605;BME280;5858;43.076;25.626;2023-11-21T09:02:52;99035.50;;;10.99;74.28
11605;BME280;5858;43.076;25.626;2023-11-21T09:05:23;99014.72;;;11.01;73.42
11605;BME280;5858;43.076;25.626;2023-11-21T09:07:51;99021.66;;;11.17;72.31
11605;BME280;5858;43.076;25.626;2023-11-21T09:10:18;99003.09;;;11.15;70.68
11605;BME280;5858;43.076;25.626;2023-11-21T09:12:46;99014.34;;;11.32;72.02
11605;BME280;5858;43.076;25.626;2023-11-21T09:15:13;98903.09;;;10.73;71.49
11605;BME280;5858;43.076;25.626;2023-11-21T09:17:41;98908.94;;;10.84;71.20
11605;BME280;5858;43.076;25.626;2023-11-21T09:20:10;98986.81;;;11.45;71.16
11605;BME280;5858;43.076;25.626;2023-11-21T09:22:37;99004.78;;;11.51;71.71
11605;BME280;5858;43.076;25.626;2023-11-21T09:25:05;98923.13;;;11.06;70.54
11605;BME280;5858;43.076;25.626;2023-11-21T09:27:33;98904.75;;;11.02;69.23
11605;BME280;5858;43.076;25.626;2023-11-21T09:30:01;98988.75;;;11.57;68.81
11605;BME280;5858;43.076;25.626;2023-11-21T09:32:31;98868.47;;;10.93;69.64
11605;BME280;5858;43.076;25.626;2023-11-21T09:35:02;98958.88;;;11.60;68.84
11605;BME280;5858;43.076;25.626;2023-11-21T09:37:30;98969.78;;;11.93;67.54
11605;BME280;5858;43.076;25.626;2023-11-21T09:39:59;98923.56;;;11.85;68.22
11605;BME280;5858;43.076;25.626;2023-11-21T09:42:36;98961.81;;;12.26;64.95
11605;BME280;5858;43.076;25.626;2023-11-21T09:45:15;98891.03;;;12.08;63.85
11605;BME280;5858;43.076;25.626;2023-11-21T09:47:48;98933.00;;;12.61;62.29
11605;BME280;5858;43.076;25.626;2023-11-21T09:50:17;98891.50;;;12.51;62.16
11605;BME280;5858;43.076;25.626;2023-11-21T09:52:54;98864.88;;;12.49;61.43
11605;BME280;5858;43.076;25.626;2023-11-21T09:55:24;98929.47;;;13.34;59.87
11605;BME280;5858;43.076;25.626;2023-11-21T09:57:56;98933.78;;;13.41;58.58
11605;BME280;5858;43.076;25.626;2023-11-21T10:00:23;98828.53;;;12.80;56.57
11605;BME280;5858;43.076;25.626;2023-11-21T10:02:54;98864.56;;;13.23;55.20
11605;BME280;5858;43.076;25.626;2023-11-21T10:05:23;98922.91;;;13.81;53.93
11605;BME280;5858;43.076;25.626;2023-11-21T10:07:56;98914.19;;;13.85;53.27
11605;BME280;5858;43.076;25.626;2023-11-21T10:10:24;98739.84;;;13.00;53.84
11605;BME280;5858;43.076;25.626;2023-11-21T10:12:55;98837.16;;;13.60;52.65
11605;BME280;5858;43.076;25.626;2023-11-21T10:15:23;98896.72;;;14.01;52.89
11605;BME280;5858;43.076;25.626;2023-11-21T10:17:52;98898.50;;;14.21;52.00
11605;BME280;5858;43.076;25.626;2023-11-21T10:20:20;98876.25;;;14.32;51.81
11605;BME280;5858;43.076;25.626;2023-11-21T10:22:48;98889.66;;;14.38;51.84
11605;BME280;5858;43.076;25.626;2023-11-21T10:25:15;98858.25;;;14.32;51.28
11605;BME280;5858;43.076;25.626;2023-11-21T10:27:47;98804.88;;;13.98;53.26
11605;BME280;5858;43.076;25.626;2023-11-21T10:30:16;98885.50;;;14.74;51.58
11605;BME280;5858;43.076;25.626;2023-11-21T10:32:43;98872.00;;;14.99;51.01
11605;BME280;5858;43.076;25.626;2023-11-21T10:35:10;98810.00;;;14.80;50.64
11605;BME280;5858;43.076;25.626;2023-11-21T10:37:37;98868.28;;;15.36;50.13
11605;BME280;5858;43.076;25.626;2023-11-21T10:40:13;98780.69;;;14.91;49.67
11605;BME280;5858;43.076;25.626;2023-11-21T10:42:40;98714.78;;;14.75;48.77
11605;BME280;5858;43.076;25.626;2023-11-21T10:45:08;98854.47;;;15.81;47.72
11605;BME280;5858;43.076;25.626;2023-11-21T10:47:39;98834.41;;;15.77;48.33
11605;BME280;5858;43.076;25.626;2023-11-21T10:50:06;98784.81;;;15.60;47.28
11605;BME280;5858;43.076;25.626;2023-11-21T10:52:36;98747.69;;;15.43;46.13
11605;BME280;5858;43.076;25.626;2023-11-21T10:55:16;98801.63;;;16.03;45.90
11605;BME280;5858;43.076;25.626;2023-11-21T10:57:44;98832.34;;;16.32;46.19
11605;BME280;5858;43.076;25.626;2023-11-21T11:00:15;98755.38;;;16.00;45.32
11605;BME280;5858;43.076;25.626;2023-11-21T11:02:46;98790.53;;;16.47;45.70
11605;BME280;5858;43.076;25.626;2023-11-21T11:05:15;98754.84;;;16.45;45.12
11605;BME280;5858;43.076;25.626;2023-11-21T11:07:44;98752.28;;;16.61;45.56
11605;BME280;5858;43.076;25.626;2023-11-21T11:10:14;98796.09;;;16.87;45.24
11605;BME280;5858;43.076;25.626;2023-11-21T11:12:41;98761.72;;;16.71;44.63
11605;BME280;5858;43.076;25.626;2023-11-21T11:15:08;98807.00;;;17.15;45.64
11605;BME280;5858;43.076;25.626;2023-11-21T11:17:37;98802.53;;;17.21;44.75
11605;BME280;5858;43.076;25.626;2023-11-21T11:20:06;98793.47;;;17.15;44.13
11605;BME280;5858;43.076;25.626;2023-11-21T11:22:40;98753.41;;;17.00;44.94
11605;BME280;5858;43.076;25.626;2023-11-21T11:25:45;98726.94;;;16.74;44.60
11605;BME280;5858;43.076;25.626;2023-11-21T11:28:17;98742.59;;;17.00;43.83
11605;BME280;5858;43.076;25.626;2023-11-21T11:30:54;98740.13;;;16.99;44.49
11605;BME280;5858;43.076;25.626;2023-11-21T11:33:36;98642.16;;;16.40;43.92
11605;BME280;5858;43.076;25.626;2023-11-21T11:36:10;98785.50;;;17.09;45.85
11605;BME280;5858;43.076;25.626;2023-11-21T11:38:45;98733.41;;;16.73;45.80
11605;BME280;5858;43.076;25.626;2023-11-21T11:41:30;98762.50;;;16.83;46.36
11605;BME280;5858;43.076;25.626;2023-11-21T11:44:00;98732.69;;;16.66;46.05
11605;BME280;5858;43.076;25.626;2023-11-21T11:46:41;98740.88;;;16.83;46.19
11605;BME280;5858;43.076;25.626;2023-11-21T11:49:08;98740.06;;;16.82;45.63
11605;BME280;5858;43.076;25.626;2023-11-21T11:51:37;98682.78;;;16.33;46.10
11605;BME280;5858;43.076;25.626;2023-11-21T11:54:06;98734.69;;;16.71;46.52
11605;BME280;5858;43.076;25.626;2023-11-21T11:56:37;98739.38;;;16.75;46.30
11605;BME280;5858;43.076;25.626;2023-11-21T11:59:05;98736.91;;;16.74;45.99
11605;BME280;5858;43.076;25.626;2023-11-21T12:01:35;98730.94;;;16.72;46.92
11605;BME280;5858;43.076;25.626;2023-11-21T12:04:23;98731.88;;;16.65;47.35
11605;BME280;5858;43.076;25.626;2023-11-21T12:06:57;98685.13;;;16.30;47.44
11605;BME280;5858;43.076;25.626;2023-11-21T12:09:28;98700.16;;;16.37;47.44
11605;BME280;5858;43.076;25.626;2023-11-21T12:11:57;98716.81;;;16.58;47.64
11605;BME280;5858;43.076;25.626;2023-11-21T12:14:25;98598.78;;;15.83;47.20
11605;BME280;5858;43.076;25.626;2023-11-21T12:16:53;98570.88;;;15.66;47.42
11605;BME280;5858;43.076;25.626;2023-11-21T12:19:20;98710.38;;;16.59;47.83
11605;BME280;5858;43.076;25.626;2023-11-21T12:21:48;98675.38;;;16.29;47.75
11605;BME280;5858;43.076;25.626;2023-11-21T12:24:16;98702.97;;;16.66;47.45
11605;BME280;5858;43.076;25.626;2023-11-21T12:26:43;98574.03;;;15.74;47.87
11605;BME280;5858;43.076;25.626;2023-11-21T12:29:12;98701.53;;;16.63;48.19
11605;BME280;5858;43.076;25.626;2023-11-21T12:31:42;98696.63;;;16.72;47.45
11605;BME280;5858;43.076;25.626;2023-11-21T12:34:14;98661.50;;;16.49;48.53
11605;BME280;5858;43.076;25.626;2023-11-21T12:36:41;98676.41;;;16.51;48.22
11605;BME280;5858;43.076;25.626;2023-11-21T12:39:08;98695.78;;;16.48;47.87
11605;BME280;5858;43.076;25.626;2023-11-21T12:41:38;98533.53;;;15.39;48.18
11605;BME280;5858;43.076;25.626;2023-11-21T12:44:11;98631.16;;;16.18;47.67
11605;BME280;5858;43.076;25.626;2023-11-21T12:46:43;98696.50;;;16.44;48.09
11605;BME280;5858;43.076;25.626;2023-11-21T12:49:13;98692.63;;;16.40;48.79
11605;BME280;5858;43.076;25.626;2023-11-21T12:51:43;98698.75;;;16.23;49.46
11605;BME280;5858;43.076;25.626;2023-11-21T12:54:12;98687.50;;;16.15;49.58
11605;BME280;5858;43.076;25.626;2023-11-21T12:56:39;98694.75;;;16.14;49.69
11605;BME280;5858;43.076;25.626;2023-11-21T12:59:06;98600.34;;;15.37;50.29
11605;BME280;5858;43.076;25.626;2023-11-21T13:01:43;98677.97;;;15.89;50.79
11605;BME280;5858;43.076;25.626;2023-11-21T13:04:10;98675.84;;;15.79;51.88
11605;BME280;5858;43.076;25.626;2023-11-21T13:06:37;98545.50;;;14.90;52.62
11605;BME280;5858;43.076;25.626;2023-11-21T13:09:06;98534.13;;;14.76;53.06